Time;durP1;ratioP1;P1;durP2;ratioP2;P2;SDS_P1;SDS_P2;PMS_P1;PMS_P2;Temp;Humidity;BMP_temperature;BMP_pressure;BME280_temperature;BME280_humidity;BME280_pressure;Samples;Min_cycle;Max_cycle;Signal;HPM_P1;HPM_P2
2021/04/22 00:00:57;;;;;;;35.80;21.77;;;;;;;;;;5055148;28;20017;-66
2021/04/22 00:03:22;;;;;;;34.28;19.90;;;;;;;;;;5055065;28;20397;-64
2021/04/22 00:05:48;;;;;;;35.17;19.48;;;;;;;;;;5054958;28;20040;-64
2021/04/22 00:08:13;;;;;;;30.85;19.65;;;;;;;;;;5054481;28;20044;-65
2021/04/22 00:10:46;;;;;;;30.90;18.83;;;;;;;;;;5054906;28;20370;-65
2021/04/22 00:13:14;;;;;;;35.42;18.40;;;;;;;;;;5054889;28;20031;-65
2021/04/22 00:15:41;;;;;;;31.90;18.40;;;;;;;;;;5054613;28;20028;-65
2021/04/22 00:18:07;;;;;;;26.52;17.35;;;;;;;;;;5054426;28;20047;-66
2021/04/22 00:20:35;;;;;;;30.13;18.25;;;;;;;;;;5054724;28;20101;-64
2021/04/22 00:23:00;;;;;;;30.95;17.63;;;;;;;;;;5054830;28;20083;-65
2021/04/22 00:25:26;;;;;;;30.55;19.13;;;;;;;;;;5054453;28;20451;-66
2021/04/22 00:27:53;;;;;;;33.25;19.50;;;;;;;;;;5054575;28;20017;-65
2021/04/22 00:30:19;;;;;;;34.85;20.08;;;;;;;;;;5054840;28;20078;-65
2021/04/22 00:32:45;;;;;;;33.30;19.65;;;;;;;;;;5054187;28;20021;-65
2021/04/22 00:35:11;;;;;;;32.20;19.08;;;;;;;;;;5054210;28;20009;-66
2021/04/22 00:37:37;;;;;;;34.38;20.30;;;;;;;;;;5054493;28;20385;-65
2021/04/22 00:40:24;;;;;;;39.45;20.38;;;;;;;;;;5056373;28;20017;-65
2021/04/22 00:42:49;;;;;;;36.28;20.08;;;;;;;;;;5054204;28;20025;-65
2021/04/22 00:45:15;;;;;;;28.10;17.23;;;;;;;;;;5054190;28;20506;-64
2021/04/22 00:47:41;;;;;;;33.63;18.48;;;;;;;;;;5054191;28;20025;-64
2021/04/22 00:50:07;;;;;;;34.80;19.10;;;;;;;;;;5054034;28;20017;-67
2021/04/22 00:52:33;;;;;;;34.30;18.17;;;;;;;;;;5054033;28;20024;-66
2021/04/22 00:54:59;;;;;;;28.23;18.33;;;;;;;;;;5053779;28;20055;-65
2021/04/22 00:57:24;;;;;;;32.83;18.17;;;;;;;;;;5054013;28;20067;-65
2021/04/22 00:59:50;;;;;;;33.47;17.88;;;;;;;;;;5053799;28;20424;-65
2021/04/22 01:02:17;;;;;;;30.27;18.90;;;;;;;;;;5053934;28;20052;-65
2021/04/22 01:04:43;;;;;;;27.33;16.25;;;;;;;;;;5053534;28;20505;-64
2021/04/22 01:07:09;;;;;;;29.30;17.80;;;;;;;;;;5051842;28;20024;-64
2021/04/22 01:09:35;;;;;;;26.00;17.15;;;;;;;;;;5053679;28;20028;-65
2021/04/22 01:12:02;;;;;;;26.88;16.50;;;;;;;;;;5053666;28;20066;-65
2021/04/22 01:14:28;;;;;;;26.70;16.85;;;;;;;;;;5053625;28;20453;-64
2021/04/22 01:16:53;;;;;;;26.92;15.73;;;;;;;;;;5053193;28;20078;-66
2021/04/22 01:19:19;;;;;;;26.00;16.75;;;;;;;;;;5053694;28;20134;-65
2021/04/22 01:21:44;;;;;;;27.95;16.70;;;;;;;;;;5053506;28;20063;-65
2021/04/22 01:24:10;;;;;;;27.27;16.55;;;;;;;;;;5053437;28;20027;-66
2021/04/22 01:26:36;;;;;;;25.77;14.93;;;;;;;;;;5053309;28;20017;-64
2021/04/22 01:29:02;;;;;;;24.17;15.70;;;;;;;;;;5053010;28;20514;-66
2021/04/22 01:31:27;;;;;;;21.80;14.15;;;;;;;;;;5053121;28;20028;-65
2021/04/22 01:34:11;;;;;;;23.58;14.50;;;;;;;;;;5053014;28;20948;-65
2021/04/22 01:36:41;;;;;;;24.88;13.38;;;;;;;;;;5053205;28;20060;-64
2021/04/22 01:39:07;;;;;;;19.95;13.27;;;;;;;;;;5051395;28;20024;-65
2021/04/22 01:41:33;;;;;;;22.25;14.00;;;;;;;;;;5053421;28;20040;-66
2021/04/22 01:43:58;;;;;;;23.85;14.45;;;;;;;;;;5052968;28;20468;-66
2021/04/22 01:46:24;;;;;;;25.55;14.60;;;;;;;;;;5053096;28;20083;-66
2021/04/22 01:48:50;;;;;;;25.83;15.00;;;;;;;;;;5051835;28;20021;-65
2021/04/22 01:51:15;;;;;;;23.90;15.07;;;;;;;;;;5053232;28;20025;-65
2021/04/22 01:53:41;;;;;;;24.83;15.82;;;;;;;;;;5053087;28;20025;-65
2021/04/22 01:56:06;;;;;;;26.90;15.82;;;;;;;;;;5052824;28;20013;-65
2021/04/22 01:58:32;;;;;;;29.02;16.20;;;;;;;;;;5053133;28;20025;-64
2021/04/22 02:00:59;;;;;;;27.58;16.77;;;;;;;;;;5052677;28;20029;-65
2021/04/22 02:03:25;;;;;;;25.40;15.85;;;;;;;;;;5052988;28;20016;-66
2021/04/22 02:05:51;;;;;;;26.75;16.73;;;;;;;;;;5052552;28;20025;-64
2021/04/22 02:08:16;;;;;;;28.55;16.30;;;;;;;;;;5052168;28;20051;-67
2021/04/22 02:10:42;;;;;;;27.77;16.23;;;;;;;;;;5052636;28;20500;-65
2021/04/22 02:13:09;;;;;;;28.40;16.23;;;;;;;;;;5052601;28;20362;-65
2021/04/22 02:15:35;;;;;;;30.45;16.73;;;;;;;;;;5051375;28;20382;-66
2021/04/22 02:18:01;;;;;;;29.60;17.13;;;;;;;;;;5052476;28;20021;-64
2021/04/22 02:20:26;;;;;;;30.75;19.05;;;;;;;;;;5051307;28;20061;-65
2021/04/22 02:22:52;;;;;;;30.02;17.65;;;;;;;;;;5052059;28;20017;-65
2021/04/22 02:25:19;;;;;;;32.40;17.33;;;;;;;;;;5052310;28;20047;-66
2021/04/22 02:27:44;;;;;;;29.42;17.92;;;;;;;;;;5052641;28;20108;-65
2021/04/22 02:30:21;;;;;;;28.05;17.05;;;;;;;;;;5052565;28;20136;-64
2021/04/22 02:32:46;;;;;;;29.55;17.20;;;;;;;;;;5051246;28;20023;-65
2021/04/22 02:35:14;;;;;;;30.10;16.88;;;;;;;;;;5052718;28;20099;-65
2021/04/22 02:37:40;;;;;;;33.95;16.77;;;;;;;;;;5051726;28;20504;-66
2021/04/22 02:40:07;;;;;;;27.48;16.58;;;;;;;;;;5052347;28;20053;-64
2021/04/22 02:42:33;;;;;;;26.77;16.77;;;;;;;;;;5056264;28;20020;-64
2021/04/22 02:44:58;;;;;;;27.30;16.08;;;;;;;;;;5056486;28;20496;-65
2021/04/22 02:47:24;;;;;;;25.45;16.60;;;;;;;;;;5058174;28;20043;-63
2021/04/22 02:49:49;;;;;;;27.08;15.63;;;;;;;;;;5057844;28;20028;-65
2021/04/22 02:52:15;;;;;;;23.92;14.85;;;;;;;;;;5056428;28;20381;-65
2021/04/22 02:54:40;;;;;;;30.15;17.13;;;;;;;;;;5056064;28;20013;-65
2021/04/22 02:57:06;;;;;;;29.30;14.90;;;;;;;;;;5056465;28;20009;-65
2021/04/22 02:59:32;;;;;;;25.35;15.50;;;;;;;;;;5056052;28;20060;-65
2021/04/22 03:01:57;;;;;;;24.20;15.98;;;;;;;;;;5055959;28;20045;-64
2021/04/22 03:04:23;;;;;;;24.15;15.00;;;;;;;;;;5056166;28;20558;-65
2021/04/22 03:06:48;;;;;;;24.50;15.18;;;;;;;;;;5056080;28;20025;-66
2021/04/22 03:09:14;;;;;;;23.45;14.40;;;;;;;;;;5055413;28;20021;-64
2021/04/22 03:11:40;;;;;;;21.17;13.50;;;;;;;;;;5056076;28;20020;-64
2021/04/22 03:14:05;;;;;;;24.90;13.50;;;;;;;;;;5055610;28;20025;-66
2021/04/22 03:16:31;;;;;;;22.75;13.70;;;;;;;;;;5055981;28;20017;-65
2021/04/22 03:18:56;;;;;;;21.17;13.02;;;;;;;;;;5055533;28;20500;-66
2021/04/22 03:21:22;;;;;;;27.08;15.05;;;;;;;;;;5055780;28;20465;-66
2021/04/22 03:23:47;;;;;;;30.10;15.43;;;;;;;;;;5055705;28;20013;-66
2021/04/22 03:26:13;;;;;;;23.27;13.63;;;;;;;;;;5055520;28;20045;-65
2021/04/22 03:28:38;;;;;;;29.23;14.50;;;;;;;;;;5055435;28;20017;-66
2021/04/22 03:31:04;;;;;;;20.02;12.77;;;;;;;;;;5055981;28;20025;-65
2021/04/22 03:33:29;;;;;;;22.48;13.57;;;;;;;;;;5055607;28;20401;-63
2021/04/22 03:35:55;;;;;;;30.63;14.82;;;;;;;;;;5055720;28;20020;-64
2021/04/22 03:38:20;;;;;;;23.98;13.85;;;;;;;;;;5055256;28;20052;-64
2021/04/22 03:40:46;;;;;;;22.13;12.43;;;;;;;;;;5055380;28;20426;-64
2021/04/22 03:43:11;;;;;;;22.35;12.90;;;;;;;;;;5055704;28;20013;-65
2021/04/22 03:45:37;;;;;;;26.20;13.02;;;;;;;;;;5055226;28;20025;-64
2021/04/22 03:48:03;;;;;;;21.17;12.20;;;;;;;;;;5055451;28;20017;-66
2021/04/22 03:50:29;;;;;;;17.08;11.35;;;;;;;;;;5055536;28;20037;-65
2021/04/22 03:52:54;;;;;;;21.33;12.52;;;;;;;;;;5054226;28;20552;-65
2021/04/22 03:55:20;;;;;;;22.58;13.05;;;;;;;;;;5055318;28;20041;-65
2021/04/22 03:57:46;;;;;;;17.25;11.35;;;;;;;;;;5055344;28;20384;-65
2021/04/22 04:00:13;;;;;;;21.20;11.93;;;;;;;;;;5054922;28;20013;-63
2021/04/22 04:02:39;;;;;;;28.70;12.43;;;;;;;;;;5054927;28;20051;-63
2021/04/22 04:05:05;;;;;;;25.10;11.77;;;;;;;;;;5054919;28;20064;-64
2021/04/22 04:07:31;;;;;;;20.08;11.82;;;;;;;;;;5054575;28;20488;-65
2021/04/22 04:09:56;;;;;;;23.25;12.30;;;;;;;;;;5054737;28;20021;-64
2021/04/22 04:12:22;;;;;;;19.20;11.85;;;;;;;;;;5054899;28;20458;-63
2021/04/22 04:14:47;;;;;;;20.80;12.18;;;;;;;;;;5054425;28;20055;-66
2021/04/22 04:17:12;;;;;;;19.15;10.65;;;;;;;;;;5054748;28;20032;-66
2021/04/22 04:19:38;;;;;;;23.83;14.93;;;;;;;;;;5054672;28;20040;-65
2021/04/22 04:22:03;;;;;;;22.10;13.23;;;;;;;;;;5054579;28;20017;-64
2021/04/22 04:24:29;;;;;;;23.38;13.07;;;;;;;;;;5054624;28;20033;-66
2021/04/22 04:26:55;;;;;;;18.15;11.20;;;;;;;;;;5054173;28;20024;-65
2021/04/22 04:29:20;;;;;;;16.05;10.15;;;;;;;;;;5054620;28;20025;-65
2021/04/22 04:31:46;;;;;;;16.60;10.07;;;;;;;;;;5054410;28;20469;-64
2021/04/22 04:34:11;;;;;;;15.35;10.10;;;;;;;;;;5054464;28;20028;-66
2021/04/22 04:36:37;;;;;;;17.30;10.15;;;;;;;;;;5054282;28;20143;-65
2021/04/22 04:39:03;;;;;;;19.50;9.45;;;;;;;;;;5052383;28;20025;-66
2021/04/22 04:41:28;;;;;;;18.75;10.20;;;;;;;;;;5054749;28;20017;-64
2021/04/22 04:43:54;;;;;;;25.52;10.43;;;;;;;;;;5054122;28;20362;-64
2021/04/22 04:46:19;;;;;;;19.40;10.00;;;;;;;;;;5054167;28;20039;-65
2021/04/22 04:48:45;;;;;;;17.33;9.38;;;;;;;;;;5054045;28;20027;-65
2021/04/22 04:51:11;;;;;;;18.40;10.25;;;;;;;;;;5054091;28;20013;-66
2021/04/22 04:53:37;;;;;;;18.73;9.20;;;;;;;;;;5054136;28;20067;-65
2021/04/22 04:56:03;;;;;;;14.50;9.48;;;;;;;;;;5056347;28;20011;-63
2021/04/22 04:58:28;;;;;;;18.17;9.20;;;;;;;;;;5055008;28;20104;-66
2021/04/22 05:00:54;;;;;;;15.75;8.55;;;;;;;;;;5053824;28;20108;-65
2021/04/22 05:03:19;;;;;;;19.85;8.50;;;;;;;;;;5053950;28;20415;-65
2021/04/22 05:05:45;;;;;;;11.35;7.95;;;;;;;;;;5052982;28;20029;-65
2021/04/22 05:08:10;;;;;;;14.98;8.15;;;;;;;;;;5053187;28;20017;-65
2021/04/22 05:10:36;;;;;;;14.98;8.10;;;;;;;;;;5053459;28;20373;-64
2021/04/22 05:13:01;;;;;;;11.68;7.15;;;;;;;;;;5053898;28;20109;-65
2021/04/22 05:15:27;;;;;;;15.55;7.65;;;;;;;;;;5053515;28;20017;-65
2021/04/22 05:17:52;;;;;;;15.70;7.80;;;;;;;;;;5053753;28;20465;-64
2021/04/22 05:20:18;;;;;;;14.48;7.88;;;;;;;;;;5053597;28;20460;-66
2021/04/22 05:22:43;;;;;;;15.88;8.02;;;;;;;;;;5053313;28;20024;-66
2021/04/22 05:25:09;;;;;;;17.13;6.97;;;;;;;;;;5053235;28;20048;-65
2021/04/22 05:27:35;;;;;;;16.83;7.65;;;;;;;;;;5053444;28;20031;-64
2021/04/22 05:30:01;;;;;;;17.52;7.07;;;;;;;;;;5053064;28;20013;-66
2021/04/22 05:32:26;;;;;;;26.63;7.53;;;;;;;;;;5053188;28;20039;-65
2021/04/22 05:34:52;;;;;;;15.40;6.53;;;;;;;;;;5052948;28;20088;-67
2021/04/22 05:37:18;;;;;;;15.55;7.43;;;;;;;;;;5052637;28;20027;-66
2021/04/22 05:39:44;;;;;;;12.10;6.70;;;;;;;;;;5053135;28;20017;-66
2021/04/22 05:42:09;;;;;;;14.40;7.35;;;;;;;;;;5053017;28;20039;-66
2021/04/22 05:44:35;;;;;;;12.73;6.30;;;;;;;;;;5052698;28;20299;-66
2021/04/22 05:47:00;;;;;;;10.05;6.63;;;;;;;;;;5052901;28;20021;-66
2021/04/22 05:49:26;;;;;;;10.43;6.25;;;;;;;;;;5053251;28;20441;-64
2021/04/22 05:51:52;;;;;;;13.18;7.25;;;;;;;;;;5052579;28;20024;-65
2021/04/22 05:54:18;;;;;;;12.75;6.03;;;;;;;;;;5053180;28;20430;-66
2021/04/22 05:56:45;;;;;;;11.18;6.32;;;;;;;;;;5050939;28;20048;-65
2021/04/22 05:59:10;;;;;;;11.27;7.10;;;;;;;;;;5041536;28;20021;-67
2021/04/22 06:01:36;;;;;;;8.38;6.38;;;;;;;;;;5045166;28;20028;-67
2021/04/22 06:04:01;;;;;;;10.88;5.80;;;;;;;;;;5038627;28;20021;-66
2021/04/22 06:06:27;;;;;;;7.80;6.07;;;;;;;;;;5048778;28;20385;-65
2021/04/22 06:08:52;;;;;;;9.98;6.20;;;;;;;;;;5053360;28;20017;-69
2021/04/22 06:11:18;;;;;;;8.93;5.95;;;;;;;;;;5048255;28;20013;-66
2021/04/22 06:13:43;;;;;;;11.85;6.22;;;;;;;;;;5044984;28;20397;-66
2021/04/22 06:16:09;;;;;;;8.88;5.82;;;;;;;;;;5036679;28;20124;-67
2021/04/22 06:18:35;;;;;;;6.97;5.72;;;;;;;;;;5047741;28;20025;-69
2021/04/22 06:21:01;;;;;;;8.68;5.65;;;;;;;;;;5038954;28;20024;-68
2021/04/22 06:23:27;;;;;;;8.20;5.55;;;;;;;;;;5044300;28;20086;-66
2021/04/22 06:25:55;;;;;;;11.77;6.38;;;;;;;;;;5049645;28;20045;-68
2021/04/22 06:28:21;;;;;;;7.25;5.35;;;;;;;;;;5050557;28;20420;-66
2021/04/22 06:30:47;;;;;;;14.10;5.53;;;;;;;;;;5049720;28;20542;-65
2021/04/22 06:33:12;;;;;;;8.15;4.82;;;;;;;;;;5051705;28;20021;-67
2021/04/22 06:35:37;;;;;;;7.78;5.30;;;;;;;;;;5052161;28;20014;-67
2021/04/22 06:38:04;;;;;;;7.40;4.28;;;;;;;;;;5046591;28;20009;-66
2021/04/22 06:40:30;;;;;;;11.20;4.78;;;;;;;;;;5044984;28;20096;-67
2021/04/22 06:42:55;;;;;;;8.65;4.60;;;;;;;;;;5042622;28;20426;-66
2021/04/22 06:45:21;;;;;;;8.98;5.38;;;;;;;;;;5043235;28;20035;-67
2021/04/22 06:47:47;;;;;;;8.57;5.40;;;;;;;;;;5047563;28;20021;-68
2021/04/22 06:50:14;;;;;;;9.75;5.85;;;;;;;;;;5047919;28;20390;-66
2021/04/22 06:52:40;;;;;;;6.30;4.85;;;;;;;;;;5049986;28;20017;-66
2021/04/22 06:55:07;;;;;;;6.50;4.72;;;;;;;;;;5052087;28;20020;-66
2021/04/22 06:57:33;;;;;;;11.55;5.70;;;;;;;;;;5039374;28;20112;-65
2021/04/22 06:59:58;;;;;;;6.07;4.53;;;;;;;;;;5048291;28;20773;-66
2021/04/22 07:02:24;;;;;;;7.53;5.40;;;;;;;;;;5052131;28;20484;-66
2021/04/22 07:04:49;;;;;;;9.73;5.03;;;;;;;;;;5049828;28;20021;-65
2021/04/22 07:07:15;;;;;;;7.10;5.13;;;;;;;;;;5050691;28;20025;-65
2021/04/22 07:09:40;;;;;;;8.07;5.30;;;;;;;;;;5049481;28;20523;-66
2021/04/22 07:12:06;;;;;;;5.68;4.70;;;;;;;;;;5040391;28;20017;-66
2021/04/22 07:14:31;;;;;;;8.68;4.70;;;;;;;;;;5050267;28;20035;-65
2021/04/22 07:17:00;;;;;;;11.65;5.70;;;;;;;;;;5041014;28;20025;-64
2021/04/22 07:19:26;;;;;;;8.25;5.65;;;;;;;;;;5038869;28;20022;-64
2021/04/22 07:21:51;;;;;;;9.73;6.00;;;;;;;;;;5038910;28;20048;-64
2021/04/22 07:24:17;;;;;;;6.97;4.60;;;;;;;;;;5035347;28;20382;-66
2021/04/22 07:26:42;;;;;;;6.13;4.68;;;;;;;;;;5040364;28;20030;-66
2021/04/22 07:29:09;;;;;;;5.55;4.68;;;;;;;;;;5032814;28;20034;-64
2021/04/22 07:31:35;;;;;;;6.97;4.93;;;;;;;;;;5025442;28;20021;-64
2021/04/22 07:34:00;;;;;;;8.00;6.18;;;;;;;;;;5066532;28;20013;-65
2021/04/22 07:36:26;;;;;;;7.00;5.22;;;;;;;;;;5048244;28;20465;-63
2021/04/22 07:38:51;;;;;;;6.90;5.07;;;;;;;;;;5048382;28;20051;-64
2021/04/22 07:41:17;;;;;;;11.32;6.00;;;;;;;;;;5049352;28;20480;-64
2021/04/22 07:43:42;;;;;;;7.68;5.25;;;;;;;;;;5033514;28;20107;-64
2021/04/22 07:46:08;;;;;;;10.48;5.55;;;;;;;;;;5046078;28;20037;-65
2021/04/22 07:48:34;;;;;;;7.07;4.82;;;;;;;;;;5066404;28;20020;-65
2021/04/22 07:50:59;;;;;;;7.03;5.57;;;;;;;;;;5056293;28;20020;-64
2021/04/22 07:53:25;;;;;;;9.02;5.60;;;;;;;;;;5070290;28;20020;-65
2021/04/22 07:55:50;;;;;;;8.95;5.63;;;;;;;;;;5072241;28;20020;-65
2021/04/22 07:58:16;;;;;;;9.35;5.22;;;;;;;;;;5047417;28;20025;-64
2021/04/22 08:00:42;;;;;;;9.40;5.97;;;;;;;;;;5047430;28;20017;-65
2021/04/22 08:03:08;;;;;;;9.75;6.43;;;;;;;;;;5049658;28;20341;-66
2021/04/22 08:05:36;;;;;;;9.02;6.03;;;;;;;;;;5053629;28;20064;-65
2021/04/22 08:08:02;;;;;;;10.82;7.25;;;;;;;;;;5053368;28;20547;-65
2021/04/22 08:10:29;;;;;;;9.05;5.95;;;;;;;;;;5048624;28;20113;-65
2021/04/22 08:12:54;;;;;;;10.18;5.93;;;;;;;;;;5054588;28;20476;-66
2021/04/22 08:15:20;;;;;;;11.63;7.70;;;;;;;;;;5065192;28;20028;-64
2021/04/22 08:17:46;;;;;;;9.70;7.03;;;;;;;;;;5055950;28;20028;-66
2021/04/22 08:20:16;;;;;;;7.82;6.65;;;;;;;;;;5054658;28;20029;-65
2021/04/22 08:22:42;;;;;;;10.98;7.45;;;;;;;;;;5054418;28;20051;-65
2021/04/22 08:25:10;;;;;;;24.77;8.55;;;;;;;;;;5052008;28;20572;-65
2021/04/22 08:27:36;;;;;;;13.60;6.60;;;;;;;;;;5053901;28;20059;-64
2021/04/22 08:30:02;;;;;;;11.90;7.15;;;;;;;;;;5050713;28;20044;-65
2021/04/22 08:32:27;;;;;;;12.23;7.72;;;;;;;;;;5052884;28;20075;-64
2021/04/22 08:34:52;;;;;;;10.77;6.60;;;;;;;;;;5052041;28;20025;-65
2021/04/22 08:37:18;;;;;;;7.40;5.95;;;;;;;;;;5053609;28;20469;-65
2021/04/22 08:39:43;;;;;;;43.35;7.93;;;;;;;;;;5053895;28;20021;-66
2021/04/22 08:42:09;;;;;;;12.30;6.75;;;;;;;;;;5053664;28;20025;-66
2021/04/22 08:44:34;;;;;;;9.43;6.13;;;;;;;;;;5053253;28;20025;-65
2021/04/22 08:47:00;;;;;;;8.20;6.55;;;;;;;;;;5054154;28;20464;-65
2021/04/22 08:49:26;;;;;;;8.40;6.00;;;;;;;;;;5054153;28;20484;-67
2021/04/22 08:51:51;;;;;;;9.50;6.57;;;;;;;;;;5053859;28;20017;-66
2021/04/22 08:54:17;;;;;;;7.95;6.63;;;;;;;;;;5053542;28;20020;-66
2021/04/22 08:56:44;;;;;;;14.50;6.35;;;;;;;;;;5053636;28;20017;-67
2021/04/22 08:59:10;;;;;;;10.27;6.68;;;;;;;;;;5053666;28;20392;-66
2021/04/22 09:01:37;;;;;;;11.73;7.07;;;;;;;;;;5052676;28;20020;-66
2021/04/22 09:04:05;;;;;;;9.70;6.43;;;;;;;;;;5053323;28;20013;-65
2021/04/22 09:06:32;;;;;;;11.05;5.85;;;;;;;;;;5053587;28;20060;-66
2021/04/22 09:08:58;;;;;;;9.20;6.03;;;;;;;;;;5052761;28;20108;-65
2021/04/22 09:11:25;;;;;;;8.88;6.30;;;;;;;;;;5053627;28;20053;-65
2021/04/22 09:13:52;;;;;;;9.52;6.13;;;;;;;;;;5051970;28;20056;-66
2021/04/22 09:16:19;;;;;;;14.07;6.18;;;;;;;;;;5053123;28;20021;-66
2021/04/22 09:18:49;;;;;;;8.60;5.35;;;;;;;;;;5053278;28;20112;-66
2021/04/22 09:21:26;;;;;;;8.52;5.70;;;;;;;;;;5053482;28;20366;-64
2021/04/22 09:24:12;;;;;;;8.13;5.55;;;;;;;;;;5053487;28;20017;-66
2021/04/22 09:26:44;;;;;;;8.68;4.97;;;;;;;;;;5052671;28;20044;-66
2021/04/22 09:29:11;;;;;;;10.43;6.18;;;;;;;;;;5053238;28;20013;-66
2021/04/22 09:31:36;;;;;;;7.75;5.10;;;;;;;;;;5053200;28;20023;-66
2021/04/22 09:34:04;;;;;;;6.45;5.00;;;;;;;;;;5052998;28;20013;-66
2021/04/22 09:36:43;;;;;;;5.30;3.97;;;;;;;;;;5052986;28;20055;-65
2021/04/22 09:39:09;;;;;;;7.57;5.40;;;;;;;;;;5052343;28;20021;-66
2021/04/22 09:41:35;;;;;;;6.13;5.10;;;;;;;;;;5053344;28;20082;-67
2021/04/22 09:44:02;;;;;;;6.90;5.10;;;;;;;;;;5052803;28;20009;-67
2021/04/22 09:46:28;;;;;;;9.15;4.88;;;;;;;;;;5050449;28;20423;-66
2021/04/22 09:48:53;;;;;;;11.13;5.05;;;;;;;;;;5039237;28;20112;-65
2021/04/22 09:51:32;;;;;;;10.32;6.50;;;;;;;;;;5047564;28;20074;-65
2021/04/22 09:54:02;;;;;;;7.90;5.50;;;;;;;;;;5050496;28;20480;-65
2021/04/22 09:56:38;;;;;;;8.93;5.57;;;;;;;;;;5054814;28;20091;-65
2021/04/22 09:59:04;;;;;;;9.55;5.93;;;;;;;;;;5059341;28;20024;-66
2021/04/22 10:01:31;;;;;;;8.82;5.50;;;;;;;;;;5057827;28;20020;-65
2021/04/22 10:03:57;;;;;;;10.13;6.40;;;;;;;;;;5052372;28;20155;-65
2021/04/22 10:06:22;;;;;;;11.10;6.35;;;;;;;;;;5051265;28;20107;-64
2021/04/22 10:08:48;;;;;;;7.88;5.80;;;;;;;;;;5050087;28;20029;-65
2021/04/22 10:11:13;;;;;;;10.68;5.88;;;;;;;;;;5051016;28;20024;-64
2021/04/22 10:13:43;;;;;;;11.68;6.18;;;;;;;;;;5051217;28;20025;-64
2021/04/22 10:16:08;;;;;;;11.45;5.22;;;;;;;;;;5045356;28;20025;-63
2021/04/22 10:18:35;;;;;;;7.10;5.38;;;;;;;;;;5051125;28;20358;-63
2021/04/22 10:21:00;;;;;;;6.53;5.00;;;;;;;;;;5049164;28;20028;-64
2021/04/22 10:23:27;;;;;;;18.75;5.78;;;;;;;;;;5049436;28;20025;-65
2021/04/22 10:25:53;;;;;;;8.32;4.97;;;;;;;;;;5051656;28;20049;-65
2021/04/22 10:28:18;;;;;;;13.25;5.68;;;;;;;;;;5048734;28;20063;-63
2021/04/22 10:30:47;;;;;;;12.95;6.30;;;;;;;;;;5051046;28;20421;-64
2021/04/22 10:33:13;;;;;;;7.95;6.15;;;;;;;;;;5051425;28;20032;-62
2021/04/22 10:35:40;;;;;;;6.47;5.40;;;;;;;;;;5051258;28;20028;-65
2021/04/22 10:38:06;;;;;;;9.25;5.32;;;;;;;;;;5050216;28;20100;-65
2021/04/22 10:40:33;;;;;;;9.88;5.60;;;;;;;;;;5049823;28;20124;-63
2021/04/22 10:43:02;;;;;;;8.82;5.38;;;;;;;;;;5050698;28;20029;-66
2021/04/22 10:45:28;;;;;;;10.68;5.95;;;;;;;;;;5050488;28;20503;-63
2021/04/22 10:47:54;;;;;;;12.68;6.13;;;;;;;;;;5039464;28;20068;-65
2021/04/22 10:50:27;;;;;;;8.98;6.13;;;;;;;;;;5044846;28;20039;-67
2021/04/22 10:52:53;;;;;;;13.45;5.40;;;;;;;;;;5045729;28;20017;-67
2021/04/22 10:55:21;;;;;;;8.82;5.80;;;;;;;;;;5051513;28;20037;-67
2021/04/22 10:57:48;;;;;;;7.63;6.65;;;;;;;;;;5050908;28;20115;-67
2021/04/22 11:00:16;;;;;;;8.73;5.90;;;;;;;;;;5049282;28;20036;-67
2021/04/22 11:02:46;;;;;;;9.80;5.35;;;;;;;;;;5047628;28;20071;-66
2021/04/22 11:05:19;;;;;;;20.75;6.50;;;;;;;;;;5053916;28;20117;-64
2021/04/22 11:07:58;;;;;;;10.55;5.55;;;;;;;;;;5052514;28;20541;-66
2021/04/22 11:10:43;;;;;;;31.85;7.10;;;;;;;;;;5040008;28;20473;-66
2021/04/22 11:13:13;;;;;;;13.32;7.75;;;;;;;;;;5044938;28;20029;-65
2021/04/22 11:15:40;;;;;;;23.50;9.52;;;;;;;;;;5045394;28;20383;-65
2021/04/22 11:18:13;;;;;;;7.35;5.70;;;;;;;;;;5052300;28;20036;-65
2021/04/22 11:20:42;;;;;;;13.65;8.25;;;;;;;;;;5048955;28;20103;-64
2021/04/22 11:23:12;;;;;;;12.40;7.82;;;;;;;;;;5053581;28;20009;-66
2021/04/22 11:25:45;;;;;;;12.07;8.07;;;;;;;;;;5053610;28;20045;-69
2021/04/22 11:28:10;;;;;;;9.20;6.20;;;;;;;;;;5052873;28;20063;-68
2021/04/22 11:30:36;;;;;;;8.80;7.05;;;;;;;;;;5051953;28;20461;-68
2021/04/22 11:33:01;;;;;;;7.88;6.40;;;;;;;;;;5050410;28;20028;-72
2021/04/22 11:35:28;;;;;;;9.82;6.78;;;;;;;;;;5030195;28;20028;-69
2021/04/22 11:37:54;;;;;;;8.90;6.32;;;;;;;;;;5047460;28;20111;-72
2021/04/22 11:40:28;;;;;;;10.52;6.78;;;;;;;;;;5049127;28;20024;-70
2021/04/22 11:42:54;;;;;;;10.48;8.07;;;;;;;;;;5053918;28;20079;-70
2021/04/22 11:45:24;;;;;;;8.40;6.10;;;;;;;;;;5052044;28;20108;-71
2021/04/22 11:47:57;;;;;;;9.05;6.22;;;;;;;;;;5055144;28;20023;-71
2021/04/22 11:50:24;;;;;;;9.55;7.85;;;;;;;;;;5053413;28;20028;-70
2021/04/22 11:53:04;;;;;;;14.15;7.00;;;;;;;;;;5053409;28;20392;-71
2021/04/22 11:55:31;;;;;;;9.40;7.03;;;;;;;;;;5041251;28;20039;-71
2021/04/22 11:57:58;;;;;;;10.65;7.10;;;;;;;;;;5053610;28;20075;-70
2021/04/22 12:00:26;;;;;;;19.40;10.65;;;;;;;;;;5053883;28;20017;-70
2021/04/22 12:02:52;;;;;;;18.33;9.52;;;;;;;;;;5054816;28;20024;-69
2021/04/22 12:05:18;;;;;;;11.77;9.02;;;;;;;;;;5054614;28;20029;-70
2021/04/22 12:07:48;;;;;;;13.63;7.03;;;;;;;;;;5031648;28;20519;-69
2021/04/22 12:10:16;;;;;;;19.95;7.90;;;;;;;;;;5053950;28;20028;-70
2021/04/22 12:12:42;;;;;;;13.35;6.78;;;;;;;;;;5048190;28;20028;-70
2021/04/22 12:15:07;;;;;;;10.38;7.90;;;;;;;;;;5052750;28;20488;-71
2021/04/22 12:17:33;;;;;;;10.52;7.85;;;;;;;;;;5069693;28;20443;-74
2021/04/22 12:20:00;;;;;;;11.65;8.38;;;;;;;;;;5061016;28;20024;-74
2021/04/22 12:22:28;;;;;;;13.75;9.45;;;;;;;;;;5041026;28;20021;-70
2021/04/22 12:24:54;;;;;;;14.38;10.30;;;;;;;;;;5040385;28;20127;-73
2021/04/22 12:27:27;;;;;;;12.25;9.73;;;;;;;;;;5050438;28;20033;-70
2021/04/22 12:29:52;;;;;;;12.13;9.02;;;;;;;;;;5050413;28;20087;-61
2021/04/22 12:32:18;;;;;;;11.00;8.93;;;;;;;;;;5053034;28;20104;-62
2021/04/22 12:34:43;;;;;;;51.80;11.18;;;;;;;;;;5033774;28;20030;-61
2021/04/22 12:37:11;;;;;;;12.40;7.80;;;;;;;;;;5050933;28;20016;-61
2021/04/22 12:39:37;;;;;;;15.18;8.77;;;;;;;;;;5050938;28;20021;-62
2021/04/22 12:42:18;;;;;;;13.93;7.50;;;;;;;;;;5059259;28;20021;-63
2021/04/22 12:44:50;;;;;;;17.67;9.48;;;;;;;;;;5036293;28;20021;-63
2021/04/22 12:47:16;;;;;;;9.20;7.63;;;;;;;;;;5056492;28;20381;-61
2021/04/22 12:49:49;;;;;;;10.32;7.38;;;;;;;;;;5048687;28;20021;-61
2021/04/22 12:52:14;;;;;;;14.23;9.90;;;;;;;;;;5052039;28;20009;-62
2021/04/22 12:54:40;;;;;;;13.20;10.48;;;;;;;;;;5051658;28;20461;-65
2021/04/22 12:57:10;;;;;;;13.02;10.65;;;;;;;;;;5037474;28;20071;-66
2021/04/22 12:59:44;;;;;;;13.93;11.02;;;;;;;;;;5034577;28;20032;-66
2021/04/22 13:02:11;;;;;;;16.25;12.65;;;;;;;;;;5060578;28;20484;-63
2021/04/22 13:04:37;;;;;;;14.55;11.20;;;;;;;;;;5044606;28;20553;-66
2021/04/22 13:07:02;;;;;;;18.38;11.40;;;;;;;;;;5053238;28;20150;-64
2021/04/22 13:09:28;;;;;;;15.63;9.82;;;;;;;;;;5031698;28;20051;-64
2021/04/22 13:11:54;;;;;;;11.88;7.40;;;;;;;;;;5039586;28;20545;-69
2021/04/22 13:14:22;;;;;;;14.88;8.13;;;;;;;;;;5048161;28;20017;-69
2021/04/22 13:16:49;;;;;;;21.33;7.53;;;;;;;;;;5052046;28;20029;-72
2021/04/22 13:19:22;;;;;;;16.88;8.70;;;;;;;;;;5064585;28;20031;-70
2021/04/22 13:22:01;;;;;;;16.67;6.90;;;;;;;;;;5035980;28;20052;-69
2021/04/22 13:24:28;;;;;;;20.92;8.65;;;;;;;;;;5027072;28;20067;-66
2021/04/22 13:26:58;;;;;;;33.55;11.20;;;;;;;;;;5044199;28;20931;-70
2021/04/22 13:29:25;;;;;;;15.77;9.75;;;;;;;;;;5043353;28;20067;-71
2021/04/22 13:31:57;;;;;;;21.08;9.95;;;;;;;;;;5030433;28;20021;-68
2021/04/22 13:34:23;;;;;;;17.83;8.25;;;;;;;;;;5044001;28;20036;-70
2021/04/22 13:36:50;;;;;;;16.73;8.50;;;;;;;;;;5041013;28;20053;-70
2021/04/22 13:39:16;;;;;;;21.58;10.07;;;;;;;;;;5035156;28;20021;-64
2021/04/22 13:41:44;;;;;;;16.35;9.18;;;;;;;;;;5027127;28;20108;-63
2021/04/22 13:44:11;;;;;;;16.23;10.35;;;;;;;;;;5048531;28;20026;-63
2021/04/22 13:46:39;;;;;;;18.55;8.82;;;;;;;;;;5046795;28;20056;-65
2021/04/22 13:49:06;;;;;;;16.50;7.80;;;;;;;;;;5047273;28;20020;-66
2021/04/22 13:51:35;;;;;;;12.38;6.68;;;;;;;;;;5042903;28;20025;-66
2021/04/22 13:54:14;;;;;;;13.88;8.20;;;;;;;;;;5042313;28;20029;-66
2021/04/22 13:56:41;;;;;;;10.33;8.57;;;;;;;;;;5047998;28;20026;-68
2021/04/22 13:59:07;;;;;;;12.52;8.05;;;;;;;;;;5040670;28;20075;-67
2021/04/22 14:01:33;;;;;;;11.38;7.60;;;;;;;;;;5039575;28;20016;-68
2021/04/22 14:03:59;;;;;;;12.02;8.82;;;;;;;;;;5053325;28;20029;-67
2021/04/22 14:06:32;;;;;;;10.00;7.88;;;;;;;;;;5054122;28;20024;-68
2021/04/22 14:08:58;;;;;;;10.98;6.32;;;;;;;;;;5060700;28;20045;-68
2021/04/22 14:11:30;;;;;;;10.32;7.65;;;;;;;;;;5034240;28;20056;-66
2021/04/22 14:13:59;;;;;;;18.27;10.38;;;;;;;;;;5047303;28;20487;-67
2021/04/22 14:16:25;;;;;;;12.38;7.80;;;;;;;;;;5055195;28;20381;-68
2021/04/22 14:18:51;;;;;;;15.70;9.43;;;;;;;;;;5058068;28;20019;-67
2021/04/22 14:21:17;;;;;;;14.40;9.45;;;;;;;;;;5057963;28;20016;-67
2021/04/22 14:23:43;;;;;;;14.45;8.98;;;;;;;;;;5037359;28;20013;-67
2021/04/22 14:26:10;;;;;;;13.88;7.38;;;;;;;;;;5059777;28;20170;-67